Time;durP1;ratioP1;P1;durP2;ratioP2;P2;SDS_P1;SDS_P2;PMS_P1;PMS_P2;Temp;Humidity;BMP_temperature;BMP_pressure;BME280_temperature;BME280_humidity;BME280_pressure;Samples;Min_cycle;Max_cycle;Signal;HPM_P1;HPM_P2
2021/07/30 00:00:22;;;;;;;4.75;3.45;;;614.50;2432.00;;;;;;5054443;28;20077;-58
2021/07/30 00:02:48;;;;;;;5.35;3.53;;;614.50;2432.00;;;;;;5054661;28;20036;-60
2021/07/30 00:05:14;;;;;;;5.22;3.60;;;614.50;2432.00;;;;;;5047460;28;20425;-59
2021/07/30 00:07:40;;;;;;;6.72;3.63;;;614.50;2432.00;;;;;;5034079;28;20033;-57
2021/07/30 00:10:06;;;;;;;5.22;3.60;;;614.50;2432.00;;;;;;5034310;28;20040;-58
2021/07/30 00:12:32;;;;;;;8.98;3.85;;;614.50;2432.00;;;;;;5034285;28;20026;-58
2021/07/30 00:14:58;;;;;;;6.53;3.88;;;614.40;2432.00;;;;;;5034260;28;20026;-56
2021/07/30 00:17:23;;;;;;;6.32;3.75;;;614.40;2432.00;;;;;;5034531;28;20030;-57
2021/07/30 00:19:49;;;;;;;7.53;3.92;;;614.40;2432.00;;;;;;5034378;28;20021;-57
2021/07/30 00:22:15;;;;;;;6.63;4.78;;;614.40;2432.00;;;;;;5034355;28;20037;-57
2021/07/30 00:24:40;;;;;;;7.25;4.00;;;614.40;2432.00;;;;;;5034302;28;20076;-57
2021/07/30 00:27:06;;;;;;;6.25;4.03;;;614.40;2432.00;;;;;;5034057;28;20033;-57
2021/07/30 00:29:32;;;;;;;7.75;3.65;;;614.40;2432.00;;;;;;5034257;28;20037;-58
2021/07/30 00:31:57;;;;;;;6.00;3.60;;;589.70;2432.00;;;;;;5034186;28;20363;-57
2021/07/30 00:34:23;;;;;;;6.18;3.92;;;589.70;2432.00;;;;;;5034118;28;20030;-59
2021/07/30 00:36:49;;;;;;;6.10;3.90;;;614.40;2432.00;;;;;;5036502;28;20405;-59
2021/07/30 00:39:14;;;;;;;6.88;3.67;;;614.40;2432.00;;;;;;5033858;28;20087;-58
2021/07/30 00:41:40;;;;;;;7.13;4.00;;;589.70;2432.00;;;;;;5033803;28;20029;-57
2021/07/30 00:44:09;;;;;;;8.80;3.90;;;589.70;2432.00;;;;;;5033206;28;20108;-56
2021/07/30 00:46:36;;;;;;;4.78;3.85;;;589.60;2432.00;;;;;;5033807;28;20464;-56
2021/07/30 00:49:02;;;;;;;6.43;3.83;;;589.60;2432.00;;;;;;5033949;28;20052;-56
2021/07/30 00:51:28;;;;;;;5.80;3.63;;;589.60;2432.00;;;;;;5033886;28;20057;-57
2021/07/30 00:53:57;;;;;;;5.05;3.90;;;589.60;2432.00;;;;;;5033950;28;20022;-56
2021/07/30 00:56:23;;;;;;;8.02;4.68;;;589.60;2432.00;;;;;;5033635;28;20538;-57
2021/07/30 00:58:49;;;;;;;7.60;4.43;;;589.60;2432.00;;;;;;5033826;28;20021;-57
2021/07/30 01:01:17;;;;;;;6.47;4.07;;;589.60;2432.00;;;;;;5033656;28;20064;-58
2021/07/30 01:03:42;;;;;;;5.82;4.18;;;589.60;2432.00;;;;;;5033855;28;20048;-57
2021/07/30 01:06:08;;;;;;;8.30;4.40;;;589.60;2432.00;;;;;;5033664;28;20034;-58
2021/07/30 01:08:35;;;;;;;6.53;4.10;;;589.60;2432.00;;;;;;5033619;28;20030;-58
2021/07/30 01:11:01;;;;;;;6.55;4.00;;;589.60;2432.00;;;;;;5031635;28;20246;-56
2021/07/30 01:13:26;;;;;;;7.05;3.60;;;589.50;2432.00;;;;;;5048048;28;20040;-56
2021/07/30 01:15:53;;;;;;;7.60;4.00;;;589.40;2432.00;;;;;;5046210;28;20552;-56
2021/07/30 01:18:18;;;;;;;7.20;4.28;;;589.30;2432.00;;;;;;5030961;28;20018;-56
2021/07/30 01:20:47;;;;;;;8.32;4.22;;;589.30;2432.00;;;;;;5030566;28;20052;-57
2021/07/30 01:23:13;;;;;;;7.43;4.00;;;589.20;2432.00;;;;;;5030749;28;20395;-57
2021/07/30 01:25:39;;;;;;;6.53;4.05;;;589.20;2432.00;;;;;;5030840;28;20464;-57
2021/07/30 01:28:05;;;;;;;5.25;4.00;;;589.20;2432.00;;;;;;5032798;28;20032;-57
2021/07/30 01:30:31;;;;;;;6.60;4.68;;;589.20;2432.00;;;;;;5033252;28;20195;-57
2021/07/30 01:32:57;;;;;;;6.93;4.60;;;589.20;2432.00;;;;;;5035970;28;20034;-56
2021/07/30 01:35:22;;;;;;;7.15;5.10;;;589.20;2432.00;;;;;;5042493;28;20491;-57
2021/07/30 01:37:48;;;;;;;10.02;4.85;;;589.00;2432.00;;;;;;5042560;28;20421;-56
2021/07/30 01:40:15;;;;;;;7.43;4.63;;;589.10;2432.00;;;;;;5040848;28;20494;-57
2021/07/30 01:42:41;;;;;;;8.13;4.45;;;589.10;2432.00;;;;;;5042533;28;20718;-56
2021/07/30 01:45:08;;;;;;;7.32;3.88;;;589.00;2432.00;;;;;;5042396;28;20033;-57
2021/07/30 01:47:35;;;;;;;6.78;4.13;;;589.00;2432.00;;;;;;5053267;28;20021;-57
2021/07/30 01:50:01;;;;;;;7.03;4.32;;;589.00;2432.00;;;;;;5053562;28;20116;-58
2021/07/30 01:52:27;;;;;;;8.57;4.40;;;589.00;2432.00;;;;;;5034699;28;20479;-56
2021/07/30 01:54:53;;;;;;;6.18;4.18;;;589.00;2432.00;;;;;;5053639;28;20021;-57
2021/07/30 01:57:19;;;;;;;6.78;4.40;;;589.00;2432.00;;;;;;5056925;28;20117;-57
2021/07/30 01:59:45;;;;;;;6.75;4.28;;;588.90;2432.00;;;;;;5056720;28;20045;-56
2021/07/30 02:02:11;;;;;;;7.15;4.38;;;588.90;2432.00;;;;;;5056647;28;20031;-57
2021/07/30 02:04:36;;;;;;;7.35;4.80;;;588.90;2432.00;;;;;;5056972;28;20028;-58
2021/07/30 02:07:02;;;;;;;10.63;4.78;;;589.00;2432.00;;;;;;5056648;28;20020;-57
2021/07/30 02:09:29;;;;;;;7.45;4.82;;;589.00;2432.00;;;;;;5056777;28;20021;-57
2021/07/30 02:11:55;;;;;;;7.60;4.88;;;589.00;2432.00;;;;;;5056742;28;20068;-57
2021/07/30 02:14:25;;;;;;;7.28;4.13;;;589.00;2432.00;;;;;;5056393;28;20057;-57
2021/07/30 02:16:54;;;;;;;7.57;4.30;;;589.00;2432.00;;;;;;5056628;28;20116;-57
2021/07/30 02:19:20;;;;;;;10.73;4.60;;;589.00;2432.00;;;;;;5056364;28;20028;-57
2021/07/30 02:21:51;;;;;;;7.80;4.22;;;589.00;2432.00;;;;;;5056608;28;20048;-57
2021/07/30 02:24:17;;;;;;;6.53;4.00;;;588.90;2432.00;;;;;;5056436;28;20013;-57
2021/07/30 02:26:43;;;;;;;8.20;4.82;;;588.90;2432.00;;;;;;5056640;28;20028;-57
2021/07/30 02:29:09;;;;;;;8.38;4.43;;;588.80;2432.00;;;;;;5056185;28;20033;-57
2021/07/30 02:31:35;;;;;;;10.27;5.13;;;588.80;2432.00;;;;;;5056348;28;20053;-58
2021/07/30 02:34:00;;;;;;;9.52;5.80;;;564.10;2432.00;;;;;;5056226;28;20029;-57
2021/07/30 02:36:26;;;;;;;12.20;5.85;;;564.10;2432.00;;;;;;5056262;28;20079;-57
2021/07/30 02:38:52;;;;;;;10.88;5.57;;;564.10;2432.00;;;;;;5055957;28;20459;-57
2021/07/30 02:41:18;;;;;;;10.10;5.50;;;564.00;2432.00;;;;;;5056361;28;20036;-57
2021/07/30 02:43:44;;;;;;;8.15;5.65;;;564.00;2432.00;;;;;;5056229;28;20104;-57
2021/07/30 02:46:11;;;;;;;8.88;5.55;;;564.00;2432.00;;;;;;5055831;28;20025;-57
2021/07/30 02:48:37;;;;;;;6.30;5.32;;;564.00;2432.00;;;;;;5055744;28;20025;-55
2021/07/30 02:51:03;;;;;;;10.75;5.90;;;564.00;2432.00;;;;;;5055780;28;20090;-57
2021/07/30 02:53:29;;;;;;;12.43;6.70;;;564.00;2432.00;;;;;;5055932;28;20025;-57
2021/07/30 02:55:54;;;;;;;8.50;6.15;;;564.00;2432.00;;;;;;5055811;28;20033;-56
2021/07/30 02:58:20;;;;;;;12.75;6.75;;;564.00;2432.00;;;;;;5055934;28;20478;-56
2021/07/30 03:00:46;;;;;;;10.02;6.25;;;564.00;2432.00;;;;;;5055604;28;20053;-57
2021/07/30 03:03:11;;;;;;;11.88;6.35;;;564.00;2432.00;;;;;;5055827;28;20104;-56
2021/07/30 03:05:37;;;;;;;11.95;6.90;;;564.00;2432.00;;;;;;5055568;28;20021;-56
2021/07/30 03:08:03;;;;;;;9.20;6.38;;;564.00;2432.00;;;;;;5055064;28;20033;-56
2021/07/30 03:10:29;;;;;;;11.48;7.18;;;564.00;2432.00;;;;;;5055377;28;20025;-57
2021/07/30 03:12:54;;;;;;;9.25;5.70;;;564.00;2432.00;;;;;;5055546;28;20065;-56
2021/07/30 03:15:20;;;;;;;8.38;5.68;;;564.00;2432.00;;;;;;5055277;28;20032;-56
2021/07/30 03:17:46;;;;;;;10.48;6.10;;;564.00;2432.00;;;;;;5055483;28;20082;-56
2021/07/30 03:20:12;;;;;;;8.07;5.20;;;563.90;2432.00;;;;;;5055352;28;20028;-56
2021/07/30 03:22:38;;;;;;;8.88;5.35;;;564.00;2432.00;;;;;;5055270;28;20025;-57
2021/07/30 03:25:04;;;;;;;9.23;5.13;;;564.00;2432.00;;;;;;5055077;28;20017;-57
2021/07/30 03:27:30;;;;;;;10.40;5.25;;;564.00;2432.00;;;;;;5055537;28;20403;-59
2021/07/30 03:29:56;;;;;;;9.95;5.70;;;564.00;2432.00;;;;;;5051602;28;20033;-57
2021/07/30 03:32:22;;;;;;;8.25;5.60;;;564.00;2432.00;;;;;;5048954;28;20028;-56
2021/07/30 03:34:47;;;;;;;8.23;5.47;;;564.00;2432.00;;;;;;5054690;28;20399;-57
2021/07/30 03:37:13;;;;;;;10.00;5.57;;;564.00;2432.00;;;;;;5055157;28;20506;-56
2021/07/30 03:39:39;;;;;;;8.43;5.03;;;564.00;2432.00;;;;;;5054911;28;20105;-57
2021/07/30 03:42:06;;;;;;;10.02;4.70;;;564.00;2432.00;;;;;;5055168;28;20387;-56
2021/07/30 03:44:32;;;;;;;6.10;4.60;;;564.10;2432.00;;;;;;5039392;28;20095;-57
2021/07/30 03:46:58;;;;;;;9.35;5.00;;;564.10;2432.00;;;;;;5032139;28;20471;-56
2021/07/30 03:49:23;;;;;;;10.50;5.20;;;564.10;2432.00;;;;;;5032978;28;20036;-57
2021/07/30 03:51:49;;;;;;;8.30;5.20;;;588.80;2432.00;;;;;;5042091;28;20049;-56
2021/07/30 03:54:15;;;;;;;7.75;5.07;;;588.80;2432.00;;;;;;5052603;28;20048;-55
2021/07/30 03:56:42;;;;;;;10.00;5.30;;;588.80;2432.00;;;;;;5052467;28;20037;-56
2021/07/30 03:59:09;;;;;;;8.52;5.20;;;588.90;2432.00;;;;;;5052333;28;20025;-58
2021/07/30 04:01:35;;;;;;;8.15;5.45;;;588.90;2432.00;;;;;;5052891;28;20107;-58
2021/07/30 04:04:01;;;;;;;8.82;5.10;;;588.90;2432.00;;;;;;5051811;28;20017;-56
2021/07/30 04:06:27;;;;;;;9.43;5.13;;;588.90;2432.00;;;;;;5052727;28;20033;-56
2021/07/30 04:08:53;;;;;;;8.52;5.03;;;589.00;2432.00;;;;;;5053075;28;20357;-56
2021/07/30 04:11:19;;;;;;;8.00;4.90;;;589.00;2432.00;;;;;;5052188;28;20044;-56
2021/07/30 04:13:46;;;;;;;11.02;4.90;;;589.00;2432.00;;;;;;5052711;28;20029;-56
2021/07/30 04:16:12;;;;;;;10.25;5.28;;;589.10;2432.00;;;;;;5051887;28;20509;-57
2021/07/30 04:18:38;;;;;;;9.98;5.10;;;589.10;2432.00;;;;;;5051248;28;20037;-56
2021/07/30 04:21:08;;;;;;;7.93;4.72;;;589.20;2432.00;;;;;;5049282;28;20478;-60
2021/07/30 04:23:34;;;;;;;7.97;4.80;;;589.30;2432.00;;;;;;5032573;28;20021;-55
2021/07/30 04:26:01;;;;;;;8.85;4.90;;;589.40;2432.00;;;;;;5031874;28;20036;-56
2021/07/30 04:28:26;;;;;;;9.30;4.85;;;589.50;2432.00;;;;;;5032570;28;20038;-57
2021/07/30 04:30:52;;;;;;;8.98;5.00;;;589.60;2432.00;;;;;;5032743;28;20032;-56
2021/07/30 04:33:18;;;;;;;9.52;4.85;;;589.70;2432.00;;;;;;5031179;28;20021;-56
2021/07/30 04:35:44;;;;;;;11.50;4.95;;;614.40;2432.00;;;;;;5032689;28;20390;-57
2021/07/30 04:38:10;;;;;;;7.95;4.78;;;614.40;2432.00;;;;;;5031441;28;20030;-56
2021/07/30 04:40:40;;;;;;;6.65;4.57;;;614.50;2432.00;;;;;;5032730;28;20049;-56
2021/07/30 04:43:05;;;;;;;9.70;4.88;;;614.50;2432.00;;;;;;5031726;28;20030;-58
2021/07/30 04:45:34;;;;;;;7.72;4.68;;;614.60;2432.00;;;;;;5033731;28;20028;-57
2021/07/30 04:48:00;;;;;;;8.70;4.43;;;614.70;2406.40;;;;;;5033704;28;20116;-57
2021/07/30 04:50:26;;;;;;;7.90;4.43;;;614.70;2380.80;;;;;;5033817;28;20049;-57
2021/07/30 04:52:55;;;;;;;8.40;4.55;;;614.80;2380.80;;;;;;5033825;28;20025;-58
2021/07/30 04:55:21;;;;;;;7.63;4.50;;;615.00;2329.60;;;;;;5033776;28;20049;-57
2021/07/30 04:57:48;;;;;;;7.70;4.35;;;615.10;2252.80;;;;;;5033746;28;20405;-58
2021/07/30 05:00:14;;;;;;;8.90;4.75;;;615.10;2227.20;;;;;;5033613;28;20053;-57
2021/07/30 05:02:40;;;;;;;12.13;4.25;;;615.30;2201.60;;;;;;5033900;28;20032;-56
2021/07/30 05:05:06;;;;;;;9.77;4.90;;;640.00;2176.00;;;;;;5033567;28;20021;-59
2021/07/30 05:07:32;;;;;;;9.95;4.55;;;640.00;2176.00;;;;;;5033932;28;20056;-57
2021/07/30 05:09:57;;;;;;;7.05;4.22;;;640.10;2176.00;;;;;;5033577;28;20053;-57
2021/07/30 05:12:23;;;;;;;9.15;4.40;;;640.30;2201.60;;;;;;5033576;28;20095;-57
2021/07/30 05:14:49;;;;;;;11.20;4.30;;;640.40;2201.60;;;;;;5033634;28;20033;-57
2021/07/30 05:17:14;;;;;;;9.70;4.55;;;640.60;2201.60;;;;;;5033359;28;20045;-58
2021/07/30 05:19:40;;;;;;;10.15;4.65;;;640.80;2150.40;;;;;;5033359;28;20021;-59
2021/07/30 05:22:06;;;;;;;9.75;4.20;;;640.60;2124.80;;;;;;5033282;28;20383;-58
2021/07/30 05:24:36;;;;;;;8.73;4.30;;;640.70;2124.80;;;;;;5033837;28;20040;-58
2021/07/30 05:27:06;;;;;;;9.10;4.90;;;640.80;2099.20;;;;;;5033515;28;20115;-59
2021/07/30 05:29:32;;;;;;;6.53;4.50;;;640.80;2099.20;;;;;;5033520;28;20022;-58
2021/07/30 05:31:57;;;;;;;9.43;4.50;;;640.90;2048.00;;;;;;5037433;28;20025;-58
2021/07/30 05:34:24;;;;;;;6.28;4.13;;;640.90;1996.80;;;;;;5037242;28;20136;-57
2021/07/30 05:36:49;;;;;;;9.70;4.70;;;665.60;2048.00;;;;;;5037552;28;20076;-58
2021/07/30 05:39:15;;;;;;;8.00;4.00;;;665.60;2073.60;;;;;;5037277;28;20376;-60
2021/07/30 05:41:41;;;;;;;6.80;4.53;;;640.90;2048.00;;;;;;5036818;28;20213;-61
2021/07/30 05:44:06;;;;;;;7.60;4.30;;;640.90;2048.00;;;;;;5037443;28;20049;-61
2021/07/30 05:46:32;;;;;;;12.27;4.80;;;665.60;2099.20;;;;;;5037063;28;20080;-60
2021/07/30 05:49:01;;;;;;;8.07;4.45;;;665.60;2099.20;;;;;;5037101;28;20025;-61
2021/07/30 05:51:26;;;;;;;8.52;4.38;;;665.80;2124.80;;;;;;5037310;28;20068;-61
2021/07/30 05:53:52;;;;;;;11.98;4.57;;;665.70;2022.40;;;;;;5037041;28;20021;-61
2021/07/30 05:56:18;;;;;;;7.22;4.20;;;665.80;1996.80;;;;;;5036824;28;20034;-60
2021/07/30 05:58:43;;;;;;;11.57;4.65;;;665.80;1971.20;;;;;;5037097;28;20025;-59
2021/07/30 06:01:13;;;;;;;6.65;4.60;;;665.90;1971.20;;;;;;5037134;28;20121;-62
2021/07/30 06:03:40;;;;;;;7.55;4.57;;;665.90;1971.20;;;;;;5036979;28;20030;-62
2021/07/30 06:06:06;;;;;;;7.82;4.70;;;665.90;1971.20;;;;;;5036782;28;20033;-58
2021/07/30 06:08:32;;;;;;;6.75;4.43;;;665.90;1996.80;;;;;;5036836;28;20045;-60
2021/07/30 06:10:57;;;;;;;8.65;4.80;;;665.90;2022.40;;;;;;5036975;28;20025;-60
2021/07/30 06:13:23;;;;;;;9.52;4.75;;;666.10;2022.40;;;;;;5036609;28;20548;-58
2021/07/30 06:15:49;;;;;;;7.05;4.68;;;666.20;2022.40;;;;;;5036712;28;20057;-60
2021/07/30 06:18:15;;;;;;;6.78;4.25;;;666.20;2022.40;;;;;;5036702;28;20049;-61
2021/07/30 06:20:41;;;;;;;8.52;4.32;;;666.40;2022.40;;;;;;5036664;28;20371;-61
2021/07/30 06:23:07;;;;;;;6.57;4.25;;;666.40;1971.20;;;;;;5036556;28;20032;-59
2021/07/30 06:25:33;;;;;;;6.18;4.28;;;666.50;1971.20;;;;;;5036758;28;20434;-62
2021/07/30 06:28:00;;;;;;;8.07;4.30;;;666.50;1945.60;;;;;;5045792;28;20031;-58
2021/07/30 06:30:26;;;;;;;9.90;4.22;;;666.50;1920.00;;;;;;5046931;28;20660;-61
2021/07/30 06:32:52;;;;;;;7.63;3.78;;;666.50;1920.00;;;;;;5038954;28;20036;-57
2021/07/30 06:35:20;;;;;;;6.72;3.80;;;691.20;1894.40;;;;;;5041354;28;20115;-56
2021/07/30 06:37:46;;;;;;;6.93;3.85;;;691.20;1868.80;;;;;;5052568;28;20483;-57
2021/07/30 06:40:12;;;;;;;6.72;4.00;;;691.30;1843.20;;;;;;5050267;28;20032;-60
2021/07/30 06:42:38;;;;;;;9.02;3.88;;;691.30;1843.20;;;;;;5039255;28;20048;-60
2021/07/30 06:45:05;;;;;;;6.13;3.50;;;691.40;1843.20;;;;;;5041313;28;20017;-58
2021/07/30 06:47:33;;;;;;;8.55;4.22;;;691.50;1868.80;;;;;;5036325;28;20531;-58
2021/07/30 06:49:59;;;;;;;9.02;3.83;;;691.60;1792.00;;;;;;5040315;28;20040;-60
2021/07/30 06:52:25;;;;;;;9.07;4.18;;;691.70;1817.60;;;;;;5036600;28;20021;-58
2021/07/30 06:54:54;;;;;;;9.20;4.20;;;691.90;1792.00;;;;;;5035686;28;20087;-60
2021/07/30 06:57:20;;;;;;;6.30;3.58;;;692.00;1766.40;;;;;;5036010;28;20034;-61
2021/07/30 06:59:48;;;;;;;7.68;3.70;;;692.10;1766.40;;;;;;5035548;28;20160;-59
2021/07/30 07:02:13;;;;;;;9.05;4.22;;;716.80;1740.80;;;;;;5035228;28;20383;-61
2021/07/30 07:04:39;;;;;;;5.18;3.58;;;716.80;1766.40;;;;;;5035705;28;20021;-58
2021/07/30 07:07:05;;;;;;;6.22;3.65;;;717.00;1766.40;;;;;;5035587;28;20475;-58
2021/07/30 07:09:31;;;;;;;8.85;3.67;;;717.00;1766.40;;;;;;5038140;28;20052;-59
2021/07/30 07:11:57;;;;;;;6.10;3.70;;;717.10;1740.80;;;;;;5040792;28;20029;-60
2021/07/30 07:14:22;;;;;;;7.03;3.50;;;717.30;1766.40;;;;;;5035542;28;20026;-58
2021/07/30 07:16:48;;;;;;;4.38;3.42;;;717.40;1740.80;;;;;;5035349;28;20068;-59
2021/07/30 07:19:14;;;;;;;7.55;3.42;;;717.40;1740.80;;;;;;5035273;28;20025;-57
2021/07/30 07:21:40;;;;;;;7.22;3.78;;;717.50;1715.20;;;;;;5035418;28;20025;-58
2021/07/30 07:24:07;;;;;;;8.13;3.83;;;717.60;1715.20;;;;;;5035457;28;20021;-58
2021/07/30 07:26:36;;;;;;;5.63;3.85;;;717.70;1689.60;;;;;;5035384;28;20014;-61
2021/07/30 07:29:02;;;;;;;6.43;3.90;;;717.70;1612.80;;;;;;5035266;28;20091;-61
2021/07/30 07:31:28;;;;;;;7.50;3.88;;;742.40;1638.40;;;;;;5035128;28;20053;-59
2021/07/30 07:33:53;;;;;;;8.30;3.92;;;742.40;1612.80;;;;;;5017820;28;20067;-58
2021/07/30 07:36:19;;;;;;;5.78;3.60;;;742.50;1664.00;;;;;;5035212;28;20476;-58
2021/07/30 07:38:45;;;;;;;8.95;4.03;;;742.50;1638.40;;;;;;5034895;28;20025;-60
2021/07/30 07:41:11;;;;;;;8.95;4.03;;;742.70;1612.80;;;;;;5034882;28;20108;-58
2021/07/30 07:43:36;;;;;;;7.82;4.28;;;742.80;1612.80;;;;;;5035211;28;20029;-57
2021/07/30 07:46:02;;;;;;;6.25;4.05;;;742.90;1612.80;;;;;;5034805;28;20029;-57
2021/07/30 07:48:28;;;;;;;5.57;4.05;;;743.00;1587.20;;;;;;5034875;28;20072;-58
2021/07/30 07:50:54;;;;;;;8.73;4.82;;;743.00;1612.80;;;;;;5034744;28;20481;-61
2021/07/30 07:53:20;;;;;;;9.23;5.05;;;743.20;1612.80;;;;;;5034657;28;20108;-57
2021/07/30 07:55:46;;;;;;;5.03;3.85;;;768.00;1612.80;;;;;;5034834;28;20146;-58
2021/07/30 07:58:12;;;;;;;9.15;4.28;;;768.00;1561.60;;;;;;5034621;28;20048;-57
2021/07/30 08:00:40;;;;;;;8.52;4.20;;;768.30;1587.20;;;;;;5034148;28;20053;-58
2021/07/30 08:03:05;;;;;;;6.20;4.18;;;768.30;1536.00;;;;;;5034896;28;20026;-57
2021/07/30 08:05:31;;;;;;;8.68;4.10;;;768.50;1561.60;;;;;;5034514;28;20364;-58
2021/07/30 08:07:57;;;;;;;6.80;4.05;;;768.60;1510.40;;;;;;5034054;28;20071;-56
2021/07/30 08:10:24;;;;;;;5.32;3.80;;;768.70;1484.80;;;;;;5034614;28;20053;-58
2021/07/30 08:12:50;;;;;;;7.95;3.85;;;768.80;1484.80;;;;;;5034717;28;20491;-57
2021/07/30 08:15:15;;;;;;;8.88;3.80;;;768.80;1510.40;;;;;;5034594;28;20026;-58
2021/07/30 08:17:41;;;;;;;6.88;3.60;;;768.90;1459.20;;;;;;5034615;28;20033;-58
2021/07/30 08:20:09;;;;;;;5.00;3.40;;;793.60;1484.80;;;;;;5034318;28;20464;-58
2021/07/30 08:22:35;;;;;;;6.20;3.53;;;793.60;1433.60;;;;;;5035129;28;20025;-58
2021/07/30 08:25:01;;;;;;;4.93;3.40;;;793.70;1433.60;;;;;;5034457;28;20068;-58
2021/07/30 08:27:27;;;;;;;7.55;3.40;;;793.60;1408.00;;;;;;5033918;28;20108;-58
2021/07/30 08:29:52;;;;;;;5.38;3.40;;;793.90;1408.00;;;;;;5016352;28;20431;-62
2021/07/30 08:32:18;;;;;;;4.30;3.47;;;793.90;1382.40;;;;;;5034239;28;20022;-59
2021/07/30 08:34:44;;;;;;;5.65;3.33;;;794.00;1382.40;;;;;;5034149;28;20041;-59
2021/07/30 08:37:10;;;;;;;5.72;3.50;;;794.10;1356.80;;;;;;5034173;28;20029;-61
2021/07/30 08:39:37;;;;;;;8.68;3.42;;;794.40;1356.80;;;;;;5033752;28;20033;-62
2021/07/30 08:42:04;;;;;;;8.23;3.80;;;794.50;1356.80;;;;;;5034314;28;20089;-58
2021/07/30 08:44:32;;;;;;;4.97;3.55;;;819.20;1356.80;;;;;;5033931;28;20025;-60
2021/07/30 08:46:58;;;;;;;6.28;3.58;;;819.20;1356.80;;;;;;5033853;28;20467;-57
2021/07/30 08:49:24;;;;;;;6.30;4.10;;;819.40;1356.80;;;;;;5033691;28;20093;-60
2021/07/30 08:51:59;;;;;;;5.97;3.33;;;819.60;1356.80;;;;;;5033829;28;20112;-58
2021/07/30 08:54:24;;;;;;;;;;;819.70;1331.20;;;;;;5034198;28;20023;-57
2021/07/30 08:56:50;;;;;;;6.57;3.60;;;819.70;1356.80;;;;;;5033502;28;20003;-57
2021/07/30 08:59:16;;;;;;;7.43;4.00;;;819.70;1331.20;;;;;;5044769;28;20078;-59
2021/07/30 09:01:44;;;;;;;4.65;3.50;;;819.80;1305.60;;;;;;5053764;28;20032;-58
2021/07/30 09:04:25;;;;;;;6.70;3.58;;;819.90;1305.60;;;;;;5035544;28;20057;-61
2021/07/30 09:06:55;;;;;;;7.05;3.50;;;820.00;1305.60;;;;;;5032469;28;20052;-60
2021/07/30 09:09:20;;;;;;;7.32;3.78;;;820.00;1331.20;;;;;;5031423;28;20041;-57
2021/07/30 09:11:47;;;;;;;5.35;3.30;;;844.80;1382.40;;;;;;5032574;28;20021;-60
2021/07/30 09:14:13;;;;;;;6.88;3.53;;;845.10;1280.00;;;;;;5051320;28;20055;-57
2021/07/30 09:16:52;;;;;;;6.50;3.20;;;845.00;1305.60;;;;;;5033666;28;20395;-60
2021/07/30 09:19:19;;;;;;;6.85;3.10;;;845.10;1203.20;;;;;;5050845;28;20203;-60
2021/07/30 09:21:45;;;;;;;4.45;3.05;;;845.10;1203.20;;;;;;5051687;28;20360;-58
2021/07/30 09:24:17;;;;;;;4.60;3.33;;;845.10;1203.20;;;;;;5050423;28;20032;-59
2021/07/30 09:26:53;;;;;;;6.95;2.63;;;845.30;1177.60;;;;;;5051935;28;20028;-60
2021/07/30 09:29:19;;;;;;;5.18;2.90;;;845.20;1177.60;;;;;;5051081;28;20025;-60
2021/07/30 09:31:57;;;;;;;5.07;3.08;;;845.20;1203.20;;;;;;5051885;28;20028;-57
2021/07/30 09:34:31;;;;;;;4.10;2.92;;;845.30;1152.00;;;;;;5051947;28;20083;-60
2021/07/30 09:37:04;;;;;;;4.53;3.13;;;845.30;1177.60;;;;;;5051111;28;20387;-60
2021/07/30 09:39:33;;;;;;;5.35;3.00;;;845.40;1228.80;;;;;;5050384;28;20310;-56
2021/07/30 09:42:01;;;;;;;7.22;3.03;;;845.60;1152.00;;;;;;5067828;28;20051;-57
2021/07/30 09:44:28;;;;;;;5.68;3.35;;;870.40;1152.00;;;;;;5051840;28;20021;-58
2021/07/30 09:47:09;;;;;;;4.88;3.38;;;870.40;1177.60;;;;;;5051477;28;20386;-60
2021/07/30 09:49:46;;;;;;;4.30;3.20;;;870.50;1177.60;;;;;;5051558;28;20025;-61
2021/07/30 09:52:15;;;;;;;5.72;3.17;;;870.60;1203.20;;;;;;5050673;28;20124;-58
2021/07/30 09:54:54;;;;;;;6.95;3.50;;;870.80;1152.00;;;;;;5050816;28;20036;-58
2021/07/30 09:57:34;;;;;;;4.45;3.15;;;870.80;1177.60;;;;;;5051248;28;20067;-58
2021/07/30 10:00:04;;;;;;;4.18;3.00;;;870.90;1152.00;;;;;;5050535;28;20398;-60
2021/07/30 10:02:32;;;;;;;6.10;3.60;;;870.90;1100.80;;;;;;5051233;28;20041;-60
2021/07/30 10:04:59;;;;;;;5.28;3.25;;;870.90;1177.60;;;;;;5050693;28;20491;-61
2021/07/30 10:07:27;;;;;;;6.15;3.33;;;871.00;1203.20;;;;;;5051366;28;20124;-60
2021/07/30 10:10:11;;;;;;;4.47;3.50;;;871.00;1177.60;;;;;;5051007;28;20041;-57
2021/07/30 10:12:46;;;;;;;;;;;871.10;1177.60;;;;;;5043688;28;20040;-61
2021/07/30 10:15:12;;;;;;;5.97;3.25;;;871.20;1152.00;;;;;;5047710;28;20318;-58
2021/07/30 10:17:46;;;;;;;7.25;3.55;;;896.20;1152.00;;;;;;5053601;28;20449;-58
2021/07/30 10:20:14;;;;;;;4.30;3.22;;;896.30;1126.40;;;;;;5054376;28;20045;-58
2021/07/30 10:23:00;;;;;;;7.25;3.35;;;896.40;1126.40;;;;;;5034786;28;20041;-59
2021/07/30 10:25:34;;;;;;;5.97;2.97;;;896.20;1126.40;;;;;;5034802;28;20383;-61
2021/07/30 10:28:08;;;;;;;5.80;3.38;;;896.50;1152.00;;;;;;5037873;28;20094;-61
2021/07/30 10:30:53;;;;;;;6.00;3.20;;;896.50;1126.40;;;;;;5054628;28;20025;-61
2021/07/30 10:33:31;;;;;;;5.97;3.05;;;896.60;1126.40;;;;;;5054265;28;20278;-61
2021/07/30 10:36:01;;;;;;;5.22;3.30;;;896.50;1126.40;;;;;;5054000;28;20029;-57
2021/07/30 10:38:29;;;;;;;4.43;2.95;;;896.60;1152.00;;;;;;5053984;28;20062;-63
2021/07/30 10:41:06;;;;;;;5.28;2.92;;;896.40;1100.80;;;;;;5053889;28;20406;-61
2021/07/30 10:43:52;;;;;;;5.70;2.97;;;896.60;1100.80;;;;;;5038800;28;20042;-55
2021/07/30 10:46:21;;;;;;;4.60;3.10;;;896.60;1075.20;;;;;;5033712;28;20031;-61
2021/07/30 10:48:50;;;;;;;5.00;3.20;;;896.60;1075.20;;;;;;5034328;28;20120;-61
2021/07/30 10:51:22;;;;;;;6.85;3.20;;;896.60;1075.20;;;;;;5033422;28;20021;-60
2021/07/30 10:53:49;;;;;;;6.35;3.40;;;896.70;1075.20;;;;;;5033815;28;20029;-61
2021/07/30 10:56:17;;;;;;;6.60;3.30;;;896.50;1100.80;;;;;;5033309;28;20049;-60
2021/07/30 10:58:45;;;;;;;6.85;3.33;;;896.50;1100.80;;;;;;5033745;28;20072;-62
2021/07/30 11:01:18;;;;;;;7.20;3.40;;;896.40;1100.80;;;;;;5041055;28;20067;-59
2021/07/30 11:03:53;;;;;;;5.75;3.20;;;896.40;1100.80;;;;;;5024714;28;20049;-60
2021/07/30 11:06:30;;;;;;;6.63;3.20;;;896.50;1100.80;;;;;;5033850;28;20090;-58
2021/07/30 11:09:01;;;;;;;8.13;3.30;;;896.50;1075.20;;;;;;5032787;28;20084;-61
2021/07/30 11:11:57;;;;;;;5.10;3.72;;;896.30;1100.80;;;;;;5034194;28;20101;-60
2021/07/30 11:14:22;;;;;;;7.53;3.50;;;896.30;1100.80;;;;;;5033717;28;20053;-57
2021/07/30 11:17:00;;;;;;;8.45;3.83;;;896.30;1100.80;;;;;;5042230;28;20055;-60
2021/07/30 11:19:30;;;;;;;8.88;3.60;;;896.10;1100.80;;;;;;5053880;28;20032;-57
2021/07/30 11:21:57;;;;;;;4.88;3.40;;;896.30;1126.40;;;;;;5052585;28;20480;-57
2021/07/30 11:24:24;;;;;;;6.70;3.67;;;896.40;1126.40;;;;;;5053292;28;20083;-57
2021/07/30 11:26:50;;;;;;;7.53;3.63;;;896.60;1100.80;;;;;;5053541;28;20025;-59
2021/07/30 11:29:18;;;;;;;5.13;3.35;;;896.60;1075.20;;;;;;5051809;28;20946;-60
2021/07/30 11:31:54;;;;;;;8.75;3.58;;;896.60;1075.20;;;;;;5049506;28;20100;-57
2021/07/30 11:34:24;;;;;;;5.30;3.50;;;896.80;1075.20;;;;;;5036045;28;20038;-63
2021/07/30 11:36:50;;;;;;;6.10;3.65;;;896.80;1075.20;;;;;;5033369;28;20120;-58
2021/07/30 11:39:17;;;;;;;4.70;3.67;;;921.70;1100.80;;;;;;5031829;28;20074;-61
2021/07/30 11:41:50;;;;;;;7.03;3.70;;;921.90;1100.80;;;;;;5033680;28;20498;-58
2021/07/30 11:44:17;;;;;;;7.10;3.60;;;921.80;1100.80;;;;;;5065478;28;20020;-60
2021/07/30 11:46:52;;;;;;;7.70;4.00;;;921.80;1126.40;;;;;;5057169;28;20057;-58
2021/07/30 11:49:26;;;;;;;6.40;3.72;;;921.60;1100.80;;;;;;5049592;28;20029;-58
2021/07/30 11:51:53;;;;;;;8.07;3.95;;;896.90;1100.80;;;;;;5034494;28;20376;-60
2021/07/30 11:54:26;;;;;;;7.32;3.80;;;921.80;1126.40;;;;;;5033530;28;20379;-61
2021/07/30 11:56:52;;;;;;;7.43;3.80;;;921.90;1126.40;;;;;;5047270;28;20064;-62
2021/07/30 11:59:18;;;;;;;9.20;4.00;;;896.80;1126.40;;;;;;5040189;28;20101;-57
2021/07/30 12:02:05;;;;;;;7.18;4.20;;;896.80;1126.40;;;;;;5041740;28;20571;-61
2021/07/30 12:04:35;;;;;;;6.68;4.15;;;921.60;1100.80;;;;;;5042782;28;20029;-56
2021/07/30 12:07:12;;;;;;;8.82;4.10;;;921.80;1100.80;;;;;;5043755;28;20021;-63
2021/07/30 12:09:40;;;;;;;7.43;4.22;;;921.90;1100.80;;;;;;5058005;28;20462;-57
2021/07/30 12:12:08;;;;;;;7.57;4.10;;;921.90;1100.80;;;;;;5068595;28;20123;-60
2021/07/30 12:14:35;;;;;;;10.15;4.57;;;921.70;1075.20;;;;;;5050845;28;20028;-56
2021/07/30 12:17:03;;;;;;;8.27;4.25;;;921.70;1075.20;;;;;;5071315;28;20039;-61